Darstellungsparameter: Aktuell verwendete Einstellungen:
Skalierung der Graphiken ... ?
xyx+y,   Skalierungsfaktor:      Skalierung: Modus: x, Faktor: 1
Darstellungszeitraum ... ?
Vom - - bis: - -   Zeitraum: 19.02.2021 - 19.02.2021
Min/Max/Avg-Anzeige ... ?
Zeige MMA aktuell
Zeige MMA Monat
Zeige MMA alles
Zeige --A aktuell
Zeige --A Monat
Zeige --A alles
Keine MMA-Anzeige
MMA:
Keine MMA-Graphiken
MMA-Basis: 19.02.2021 - 19.02.2021
Quicknavigation für Darstellung... ?
Tage:      1T, 2T, 3T, 5T -1T -2T -3T -5T +1T +2T +3T +5T
Wochen: 1W, 2W, 3W -1W -2W -3W +1W +2W +3W
Monate: 1M, 3M, 6M -1M -3M -6M +1M +3M +6M
Jahre:    1J, 3J, 5J, 10J -1J -3J -5J -10J +1J +3J +5J +10J
Nutze für die Darstellung ... ?
Originaldaten oder Mittelwerte auf ...
Stundenbasis Tagesbasis Wochenbasis
Monatsbasis Jahresbasis      Datenbasis: Original-Daten
Darstellen als:
Statistik (Auto) Statistik J:M      Darstellung:
Zur Graphik,    zurück zur Übersicht aller Sensoren.
 
Tabellarische Datenbersicht: ?
 
Sensor: Nr:Datum:Temp:Feuchte:Taupunkt:
Aussen-T/F 1 19-02-2021 00:00:00 5.8 C 90 % 4.29 C
2 19-02-2021 00:05:00 5.6 C 90 % 4.09 C
3 19-02-2021 00:10:00 5.4 C 91 % 4.05 C
4 19-02-2021 00:15:00 5.3 C 91 % 3.95 C
5 19-02-2021 00:20:00 5.3 C 91 % 3.95 C
6 19-02-2021 00:25:00 5.2 C 91 % 3.85 C
7 19-02-2021 00:30:00 5.3 C 91 % 3.95 C
8 19-02-2021 00:35:00 5.2 C 91 % 3.85 C
9 19-02-2021 00:40:00 5.1 C 92 % 3.91 C
10 19-02-2021 00:45:00 5.1 C 92 % 3.91 C
11 19-02-2021 00:50:00 5.1 C 91 % 3.76 C
12 19-02-2021 00:55:00 5.1 C 92 % 3.91 C
13 19-02-2021 01:00:00 5.1 C 91 % 3.76 C
14 19-02-2021 01:05:00 5.2 C 91 % 3.85 C
15 19-02-2021 01:10:00 5.2 C 91 % 3.85 C
16 19-02-2021 01:15:00 5.2 C 91 % 3.85 C
17 19-02-2021 01:20:00 5.2 C 90 % 3.7 C
18 19-02-2021 01:25:00 5.2 C 91 % 3.85 C
19 19-02-2021 01:30:00 5.2 C 90 % 3.7 C
20 19-02-2021 01:35:00 5.2 C 90 % 3.7 C
21 19-02-2021 01:40:00 5.2 C 90 % 3.7 C
22 19-02-2021 01:45:00 5.1 C 90 % 3.6 C
23 19-02-2021 01:50:00 4.9 C 89 % 3.24 C
24 19-02-2021 01:55:00 4.7 C 89 % 3.05 C
25 19-02-2021 02:00:00 4.6 C 90 % 3.1 C
Sensor: Nr:Datum:Temp:Feuchte:Taupunkt:
Aussen-T/F 26 19-02-2021 02:05:00 4.4 C 90 % 2.91 C
27 19-02-2021 02:10:00 4.3 C 91 % 2.96 C
28 19-02-2021 02:15:00 4.2 C 91 % 2.87 C
29 19-02-2021 02:20:00 4.1 C 92 % 2.92 C
30 19-02-2021 02:25:00 3.9 C 92 % 2.72 C
31 19-02-2021 02:30:00 3.8 C 92 % 2.62 C
32 19-02-2021 02:35:00 3.7 C 92 % 2.52 C
33 19-02-2021 02:40:00 3.7 C 93 % 2.68 C
34 19-02-2021 02:45:00 3.8 C 93 % 2.77 C
35 19-02-2021 02:50:00 3.8 C 93 % 2.77 C
36 19-02-2021 02:55:00 3.9 C 94 % 3.02 C
37 19-02-2021 03:00:00 4 C 94 % 3.12 C
38 19-02-2021 03:05:00 3.9 C 94 % 3.02 C
39 19-02-2021 03:10:00 3.9 C 93 % 2.87 C
40 19-02-2021 03:15:00 3.8 C 93 % 2.77 C
41 19-02-2021 03:20:00 3.8 C 93 % 2.77 C
42 19-02-2021 03:25:00 3.7 C 93 % 2.68 C
43 19-02-2021 03:30:00 3.6 C 93 % 2.58 C
44 19-02-2021 03:35:00 3.4 C 93 % 2.38 C
45 19-02-2021 03:40:00 3.4 C 94 % 2.53 C
46 19-02-2021 03:45:00 3.5 C 94 % 2.63 C
47 19-02-2021 03:50:00 3.5 C 94 % 2.63 C
48 19-02-2021 03:55:00 3.4 C 94 % 2.53 C
49 19-02-2021 04:00:00 3.6 C 94 % 2.73 C
50 19-02-2021 04:05:00 3.6 C 94 % 2.73 C
Sensor: Nr:Datum:Temp:Feuchte:Taupunkt:
Aussen-T/F 51 19-02-2021 04:10:00 3.6 C 94 % 2.73 C
52 19-02-2021 04:15:00 3.6 C 94 % 2.73 C
53 19-02-2021 04:20:00 3.5 C 94 % 2.63 C
54 19-02-2021 04:25:00 3.4 C 94 % 2.53 C
55 19-02-2021 04:30:00 3.3 C 94 % 2.43 C
56 19-02-2021 04:35:00 3.4 C 94 % 2.53 C
57 19-02-2021 04:40:00 3.5 C 95 % 2.78 C
58 19-02-2021 04:45:00 3.6 C 95 % 2.88 C
59 19-02-2021 04:50:00 3.7 C 95 % 2.98 C
60 19-02-2021 04:55:00 3.7 C 95 % 2.98 C
61 19-02-2021 05:00:00 3.8 C 95 % 3.07 C
62 19-02-2021 05:05:00 4 C 95 % 3.27 C
63 19-02-2021 05:10:00 4.2 C 95 % 3.47 C
64 19-02-2021 05:15:00 4.2 C 94 % 3.32 C
65 19-02-2021 05:20:00 4.3 C 94 % 3.42 C
66 19-02-2021 05:25:00 4.3 C 94 % 3.42 C
67 19-02-2021 05:30:00 4.3 C 94 % 3.42 C
68 19-02-2021 05:35:00 4.2 C 93 % 3.17 C
69 19-02-2021 05:40:00 4.2 C 93 % 3.17 C
70 19-02-2021 05:45:00 4.2 C 93 % 3.17 C
71 19-02-2021 05:50:00 4 C 93 % 2.97 C
72 19-02-2021 05:55:00 3.8 C 92 % 2.62 C
73 19-02-2021 06:00:00 3.7 C 93 % 2.68 C
74 19-02-2021 06:05:00 3.6 C 93 % 2.58 C
75 19-02-2021 06:10:00 3.4 C 93 % 2.38 C
Sensor: Nr:Datum:Temp:Feuchte:Taupunkt:
Aussen-T/F 76 19-02-2021 06:15:00 3.3 C 93 % 2.28 C
77 19-02-2021 06:20:00 3.2 C 93 % 2.18 C
78 19-02-2021 06:25:00 3.1 C 93 % 2.08 C
79 19-02-2021 06:30:00 3.1 C 93 % 2.08 C
80 19-02-2021 06:35:00 3.1 C 94 % 2.23 C
81 19-02-2021 06:40:00 3.1 C 94 % 2.23 C
82 19-02-2021 06:45:00 3.1 C 94 % 2.23 C
83 19-02-2021 06:50:00 3.2 C 94 % 2.33 C
84 19-02-2021 06:55:00 3.2 C 94 % 2.33 C
85 19-02-2021 07:00:00 3.2 C 95 % 2.48 C
86 19-02-2021 07:05:00 3.3 C 95 % 2.58 C
87 19-02-2021 07:10:00 3.4 C 95 % 2.68 C
88 19-02-2021 07:15:00 3.7 C 95 % 2.98 C
89 19-02-2021 07:20:00 3.8 C 95 % 3.07 C
90 19-02-2021 07:25:00 3.8 C 95 % 3.07 C
91 19-02-2021 07:30:00 3.8 C 95 % 3.07 C
92 19-02-2021 07:35:00 3.8 C 95 % 3.07 C
93 19-02-2021 07:40:00 3.7 C 95 % 2.98 C
94 19-02-2021 07:45:00 3.7 C 95 % 2.98 C
95 19-02-2021 07:50:00 3.8 C 95 % 3.07 C
96 19-02-2021 07:55:00 3.8 C 95 % 3.07 C
97 19-02-2021 08:00:00 3.8 C 95 % 3.07 C
98 19-02-2021 08:05:00 3.8 C 95 % 3.07 C
99 19-02-2021 08:10:00 3.8 C 95 % 3.07 C
100 19-02-2021 08:15:00 3.8 C 95 % 3.07 C
Sensor: Nr:Datum:Temp:Feuchte:Taupunkt:
Aussen-T/F 101 19-02-2021 08:20:00 3.9 C 95 % 3.17 C
102 19-02-2021 08:25:00 4.2 C 96 % 3.62 C
103 19-02-2021 08:30:00 4.3 C 96 % 3.72 C
104 19-02-2021 08:35:00 4.4 C 96 % 3.82 C
105 19-02-2021 08:40:00 4.5 C 96 % 3.92 C
106 19-02-2021 08:45:00 4.6 C 96 % 4.02 C
107 19-02-2021 08:50:00 4.6 C 95 % 3.87 C
108 19-02-2021 08:55:00 4.7 C 95 % 3.97 C
109 19-02-2021 09:00:00 4.8 C 96 % 4.22 C
110 19-02-2021 09:05:00 4.8 C 95 % 4.07 C
111 19-02-2021 09:10:00 4.8 C 95 % 4.07 C
112 19-02-2021 09:15:00 4.9 C 95 % 4.17 C
113 19-02-2021 09:20:00 5 C 95 % 4.27 C
114 19-02-2021 09:25:00 5.2 C 95 % 4.47 C
115 19-02-2021 09:30:00 5.3 C 95 % 4.57 C
116 19-02-2021 09:35:00 5.4 C 95 % 4.66 C
117 19-02-2021 09:40:00 5.6 C 95 % 4.86 C
118 19-02-2021 09:45:00 5.6 C 94 % 4.71 C
119 19-02-2021 09:50:00 5.7 C 94 % 4.81 C
120 19-02-2021 09:55:00 5.7 C 94 % 4.81 C
121 19-02-2021 10:00:00 5.8 C 94 % 4.91 C
122 19-02-2021 10:05:00 5.9 C 94 % 5.01 C
123 19-02-2021 10:10:00 5.9 C 94 % 5.01 C
124 19-02-2021 10:15:00 6 C 93 % 4.96 C
125 19-02-2021 10:20:00 6.1 C 93 % 5.06 C
Sensor: Nr:Datum:Temp:Feuchte:Taupunkt:
Aussen-T/F 126 19-02-2021 10:25:00 6.2 C 93 % 5.15 C
127 19-02-2021 10:30:00 6.2 C 92 % 5 C
128 19-02-2021 10:35:00 6.3 C 93 % 5.25 C
129 19-02-2021 10:40:00 6.5 C 93 % 5.45 C
130 19-02-2021 10:45:00 6.7 C 92 % 5.49 C
131 19-02-2021 10:50:00 6.8 C 92 % 5.59 C
132 19-02-2021 10:55:00 6.9 C 91 % 5.54 C
133 19-02-2021 11:00:00 7.1 C 91 % 5.73 C
134 19-02-2021 11:05:00 7.2 C 90 % 5.67 C
135 19-02-2021 11:10:00 7.3 C 90 % 5.77 C
136 19-02-2021 11:15:00 7.5 C 90 % 5.97 C
137 19-02-2021 11:20:00 7.7 C 90 % 6.17 C
138 19-02-2021 11:25:00 7.7 C 89 % 6 C
139 19-02-2021 11:30:00 7.8 C 89 % 6.1 C
140 19-02-2021 11:35:00 7.8 C 88 % 5.94 C
141 19-02-2021 11:40:00 7.8 C 88 % 5.94 C
142 19-02-2021 11:45:00 7.9 C 88 % 6.04 C
143 19-02-2021 11:50:00 7.9 C 88 % 6.04 C
144 19-02-2021 11:55:00 8.1 C 89 % 6.4 C
145 19-02-2021 12:00:00 8.2 C 89 % 6.5 C
146 19-02-2021 12:05:00 8.3 C 89 % 6.6 C
147 19-02-2021 12:10:00 8.4 C 88 % 6.53 C
148 19-02-2021 12:15:00 8.7 C 87 % 6.66 C
149 19-02-2021 12:20:00 8.9 C 86 % 6.69 C
150 19-02-2021 12:25:00 9.1 C 85 % 6.72 C
Sensor: Nr:Datum:Temp:Feuchte:Taupunkt:
Aussen-T/F 151 19-02-2021 12:30:00 9.2 C 84 % 6.64 C
152 19-02-2021 12:35:00 9.3 C 84 % 6.74 C
153 19-02-2021 12:40:00 9.4 C 83 % 6.66 C
154 19-02-2021 12:45:00 9.5 C 83 % 6.76 C
155 19-02-2021 12:50:00 9.5 C 83 % 6.76 C
156 19-02-2021 12:55:00 9.5 C 82 % 6.59 C
157 19-02-2021 13:00:00 9.6 C 82 % 6.68 C
158 19-02-2021 13:05:00 9.6 C 82 % 6.68 C
159 19-02-2021 13:10:00 9.7 C 82 % 6.78 C
160 19-02-2021 13:15:00 9.8 C 82 % 6.88 C
161 19-02-2021 13:20:00 9.9 C 82 % 6.98 C
162 19-02-2021 13:25:00 10 C 81 % 6.89 C
163 19-02-2021 13:30:00 10.1 C 82 % 7.17 C
164 19-02-2021 13:35:00 10.2 C 81 % 7.09 C
165 19-02-2021 13:40:00 10.2 C 81 % 7.09 C
166 19-02-2021 13:45:00 10.3 C 80 % 7.01 C
167 19-02-2021 13:50:00 10.4 C 79 % 6.92 C
168 19-02-2021 13:55:00 10.4 C 80 % 7.1 C
169 19-02-2021 14:00:00 10.6 C 80 % 7.3 C
170 19-02-2021 14:05:00 10.6 C 79 % 7.11 C
171 19-02-2021 14:10:00 10.6 C 79 % 7.11 C
172 19-02-2021 14:15:00 10.7 C 79 % 7.21 C
173 19-02-2021 14:20:00 10.8 C 79 % 7.31 C
174 19-02-2021 14:25:00 10.9 C 79 % 7.41 C
175 19-02-2021 14:30:00 11.1 C 79 % 7.6 C
Sensor: Nr:Datum:Temp:Feuchte:Taupunkt:
Aussen-T/F 176 19-02-2021 14:35:00 11.2 C 78 % 7.51 C
177 19-02-2021 14:40:00 11.4 C 77 % 7.52 C
178 19-02-2021 14:45:00 11.6 C 74 % 7.13 C
179 19-02-2021 14:50:00 11.8 C 73 % 7.12 C
180 19-02-2021 14:55:00 11.8 C 73 % 7.12 C
181 19-02-2021 15:00:00 11.7 C 72 % 6.83 C
182 19-02-2021 15:05:00 11.7 C 72 % 6.83 C
183 19-02-2021 15:10:00 11.8 C 72 % 6.92 C
184 19-02-2021 15:15:00 11.8 C 73 % 7.12 C
185 19-02-2021 15:20:00 11.9 C 73 % 7.22 C
186 19-02-2021 15:25:00 11.8 C 72 % 6.92 C
187 19-02-2021 15:30:00 11.8 C 71 % 6.72 C
188 19-02-2021 15:35:00 11.8 C 71 % 6.72 C
189 19-02-2021 15:40:00 11.8 C 72 % 6.92 C
190 19-02-2021 15:45:00 11.8 C 71 % 6.72 C
191 19-02-2021 15:50:00 11.9 C 71 % 6.82 C
192 19-02-2021 15:55:00 11.9 C 71 % 6.82 C
193 19-02-2021 16:00:00 11.9 C 71 % 6.82 C
194 19-02-2021 16:05:00 11.9 C 72 % 7.02 C
195 19-02-2021 16:10:00 11.9 C 73 % 7.22 C
196 19-02-2021 16:15:00 11.9 C 71 % 6.82 C
197 19-02-2021 16:20:00 11.9 C 71 % 6.82 C
198 19-02-2021 16:25:00 11.9 C 71 % 6.82 C
199 19-02-2021 16:30:00 11.9 C 72 % 7.02 C
200 19-02-2021 16:35:00 11.8 C 69 % 6.31 C
Sensor: Nr:Datum:Temp:Feuchte:Taupunkt:
Aussen-T/F 201 19-02-2021 16:40:00 11.8 C 71 % 6.72 C
202 19-02-2021 16:45:00 11.8 C 71 % 6.72 C
203 19-02-2021 16:50:00 11.8 C 70 % 6.51 C
204 19-02-2021 16:55:00 11.7 C 72 % 6.83 C
205 19-02-2021 17:00:00 11.5 C 71 % 6.43 C
206 19-02-2021 17:05:00 11.4 C 73 % 6.74 C
207 19-02-2021 17:10:00 11.3 C 74 % 6.84 C
208 19-02-2021 17:15:00 11 C 75 % 6.75 C
209 19-02-2021 17:20:00 10.7 C 76 % 6.65 C
210 19-02-2021 17:25:00 10.4 C 76 % 6.36 C
211 19-02-2021 17:30:00 10.2 C 78 % 6.54 C
212 19-02-2021 17:35:00 9.9 C 78 % 6.25 C
213 19-02-2021 17:40:00 9.7 C 79 % 6.24 C
214 19-02-2021 17:45:00 9.4 C 80 % 6.13 C
215 19-02-2021 17:50:00 9.1 C 80 % 5.84 C
216 19-02-2021 17:55:00 8.8 C 81 % 5.72 C
217 19-02-2021 18:00:00 8.4 C 82 % 5.51 C
218 19-02-2021 18:05:00 8.2 C 82 % 5.32 C
219 19-02-2021 18:10:00 7.8 C 83 % 5.1 C
220 19-02-2021 18:15:00 7.6 C 84 % 5.07 C
221 19-02-2021 18:20:00 7.4 C 85 % 5.05 C
222 19-02-2021 18:25:00 7.2 C 86 % 5.02 C
223 19-02-2021 18:30:00 7.1 C 86 % 4.92 C
224 19-02-2021 18:35:00 6.9 C 87 % 4.89 C
225 19-02-2021 18:40:00 6.9 C 87 % 4.89 C
Sensor: Nr:Datum:Temp:Feuchte:Taupunkt:
Aussen-T/F 226 19-02-2021 18:45:00 6.8 C 88 % 4.96 C
227 19-02-2021 18:50:00 6.7 C 88 % 4.86 C
228 19-02-2021 18:55:00 6.6 C 88 % 4.76 C
229 19-02-2021 19:00:00 6.6 C 89 % 4.92 C
230 19-02-2021 19:05:00 6.5 C 89 % 4.82 C
231 19-02-2021 19:10:00 6.4 C 89 % 4.72 C
232 19-02-2021 19:15:00 6.4 C 90 % 4.88 C
233 19-02-2021 19:20:00 6.3 C 90 % 4.78 C
234 19-02-2021 19:25:00 6.3 C 90 % 4.78 C
235 19-02-2021 19:30:00 6.3 C 90 % 4.78 C
236 19-02-2021 19:35:00 6.2 C 90 % 4.69 C
237 19-02-2021 19:40:00 6.1 C 90 % 4.59 C
238 19-02-2021 19:45:00 6.1 C 90 % 4.59 C
239 19-02-2021 19:50:00 6.1 C 90 % 4.59 C
240 19-02-2021 19:55:00 6 C 91 % 4.65 C
241 19-02-2021 20:00:00 5.9 C 91 % 4.55 C
242 19-02-2021 20:05:00 5.8 C 91 % 4.45 C
243 19-02-2021 20:10:00 5.8 C 91 % 4.45 C
244 19-02-2021 20:15:00 5.7 C 91 % 4.35 C
245 19-02-2021 20:20:00 5.6 C 91 % 4.25 C
246 19-02-2021 20:25:00 5.5 C 91 % 4.15 C
247 19-02-2021 20:30:00 5.4 C 91 % 4.05 C
248 19-02-2021 20:35:00 5.3 C 91 % 3.95 C
249 19-02-2021 20:40:00 5.2 C 91 % 3.85 C
250 19-02-2021 20:45:00 5 C 91 % 3.66 C
Sensor: Nr:Datum:Temp:Feuchte:Taupunkt:
Aussen-T/F 251 19-02-2021 20:50:00 4.8 C 91 % 3.46 C
252 19-02-2021 20:55:00 4.7 C 91 % 3.36 C
253 19-02-2021 21:00:00 4.6 C 91 % 3.26 C
254 19-02-2021 21:05:00 4.4 C 92 % 3.22 C
255 19-02-2021 21:10:00 4.3 C 92 % 3.12 C
256 19-02-2021 21:15:00 4.2 C 92 % 3.02 C
257 19-02-2021 21:20:00 4.2 C 92 % 3.02 C
258 19-02-2021 21:25:00 4.1 C 93 % 3.07 C
259 19-02-2021 21:30:00 4.1 C 93 % 3.07 C
260 19-02-2021 21:35:00 4.1 C 93 % 3.07 C
261 19-02-2021 21:40:00 4.1 C 93 % 3.07 C
262 19-02-2021 21:45:00 4.1 C 93 % 3.07 C
263 19-02-2021 21:50:00 4 C 93 % 2.97 C
264 19-02-2021 21:55:00 3.9 C 94 % 3.02 C
265 19-02-2021 22:00:00 3.8 C 93 % 2.77 C
266 19-02-2021 22:05:00 3.8 C 93 % 2.77 C
267 19-02-2021 22:10:00 3.7 C 94 % 2.83 C
268 19-02-2021 22:15:00 3.7 C 94 % 2.83 C
269 19-02-2021 22:20:00 3.7 C 94 % 2.83 C
270 19-02-2021 22:25:00 3.7 C 94 % 2.83 C
271 19-02-2021 22:30:00 3.7 C 94 % 2.83 C
272 19-02-2021 22:35:00 3.7 C 94 % 2.83 C
273 19-02-2021 22:40:00 3.7 C 95 % 2.98 C
274 19-02-2021 22:45:00 3.7 C 94 % 2.83 C
275 19-02-2021 22:50:00 3.7 C 95 % 2.98 C
Sensor: Nr:Datum:Temp:Feuchte:Taupunkt:
Aussen-T/F 276 19-02-2021 22:55:00 3.7 C 94 % 2.83 C
277 19-02-2021 23:00:00 3.6 C 94 % 2.73 C
278 19-02-2021 23:05:00 3.4 C 94 % 2.53 C
279 19-02-2021 23:10:00 3.3 C 94 % 2.43 C
280 19-02-2021 23:15:00 3.2 C 94 % 2.33 C
281 19-02-2021 23:20:00 3.2 C 94 % 2.33 C
282 19-02-2021 23:25:00 3.1 C 95 % 2.38 C
283 19-02-2021 23:30:00 3.1 C 94 % 2.23 C
284 19-02-2021 23:35:00 3.1 C 95 % 2.38 C
285 19-02-2021 23:40:00 3.1 C 95 % 2.38 C
286 19-02-2021 23:45:00 3 C 95 % 2.28 C
287 19-02-2021 23:50:00 3.1 C 95 % 2.38 C
288 19-02-2021 23:55:00 3.1 C 95 % 2.38 C

Legende:
   Min
   Max


Maximal/Minimal-Werte vom 19.02.2021 - 19.02.2021

Sensor Min Max Avg
Temp
(Aussen-T/F)
3 °C
19-02-2021  23:45:00
11.9 °C
19-02-2021  15:20:00
6.25 °C
Feuchte
(Aussen-T/F)
69 %
19-02-2021  16:35:00
96 %
19-02-2021  08:25:00
88.6 %
Taupunkt
(Aussen-T/F)
2.08 C
19-02-2021  06:25:00
7.6 C
19-02-2021  14:30:00
4.42 C

Die Daten stammen von einer Davis Vantage Pro 2 Wetter-Station und werden unter Linux mit der Software wview2wettercgi und aufbereitet. Alle Angaben erfolgen ohne Gewähr für ihre Vollständigkeit oder Richtigkeit.
Kontakt: Rainer Krienke krienke@uni-koblenz.de . Meine Webseiten an der Uni Koblenz oder privat.
Version: $Revision: 0.78 $